Time;durP1;ratioP1;P1;durP2;ratioP2;P2;SDS_P1;SDS_P2;PMS_P1;PMS_P2;Temp;Humidity;BMP_temperature;BMP_pressure;BME280_temperature;BME280_humidity;BME280_pressure;Samples;Min_cycle;Max_cycle;Signal;HPM_P1;HPM_P2
2023/01/23 00:00:09;;;;;;;12.63;6.10;;;19.50;62.20;;;;;;5049636;28;20055;-70
2023/01/23 00:02:41;;;;;;;10.93;6.63;;;19.50;62.00;;;;;;5049239;28;20025;-71
2023/01/23 00:05:07;;;;;;;;;;;19.50;62.30;;;;;;5048130;28;20075;-70
2023/01/23 00:07:33;;;;;;;9.77;5.80;;;19.50;62.20;;;;;;5049304;28;20319;-70
2023/01/23 00:09:59;;;;;;;10.65;5.88;;;19.50;62.00;;;;;;5047283;28;20139;-71
2023/01/23 00:12:24;;;;;;;10.07;6.22;;;19.50;62.10;;;;;;5031683;28;20044;-70
2023/01/23 00:14:50;;;;;;;11.27;5.85;;;19.50;62.00;;;;;;5048518;28;20045;-70
2023/01/23 00:17:16;;;;;;;8.35;5.60;;;19.50;62.00;;;;;;5049879;28;20033;-72
2023/01/23 00:19:42;;;;;;;10.63;6.03;;;19.50;62.20;;;;;;5047419;28;20112;-71
2023/01/23 00:22:07;;;;;;;9.32;5.60;;;19.50;62.10;;;;;;5049965;28;20473;-72
2023/01/23 00:24:33;;;;;;;9.73;5.40;;;19.50;62.10;;;;;;5031658;28;20041;-73
2023/01/23 00:26:59;;;;;;;9.18;5.88;;;19.50;62.20;;;;;;5047928;28;20033;-71
2023/01/23 00:29:25;;;;;;;10.27;6.22;;;19.50;62.20;;;;;;5032092;28;20043;-72
2023/01/23 00:31:50;;;;;;;9.93;6.15;;;19.50;62.30;;;;;;5048070;28;20036;-72
2023/01/23 00:34:16;;;;;;;10.32;5.50;;;19.50;62.30;;;;;;5015097;28;20071;-71
2023/01/23 00:36:43;;;;;;;9.30;5.97;;;19.50;62.60;;;;;;5047949;28;20047;-71
2023/01/23 00:39:19;;;;;;;13.13;6.40;;;19.50;62.70;;;;;;5031784;28;20028;-72
2023/01/23 00:41:46;;;;;;;8.90;5.60;;;19.50;62.40;;;;;;5030885;28;20516;-71
2023/01/23 00:44:13;;;;;;;10.07;5.80;;;19.50;62.30;;;;;;5049405;28;20096;-71
2023/01/23 00:46:39;;;;;;;10.18;5.55;;;19.50;62.40;;;;;;5049006;28;20071;-71
2023/01/23 00:49:05;;;;;;;12.20;6.05;;;19.50;62.30;;;;;;5030841;28;20041;-71
2023/01/23 00:51:31;;;;;;;10.65;5.68;;;19.50;62.20;;;;;;5031562;28;20418;-71
2023/01/23 00:53:58;;;;;;;8.65;6.15;;;19.50;62.20;;;;;;5031621;28;20037;-71
2023/01/23 00:56:23;;;;;;;9.90;6.15;;;19.50;62.30;;;;;;5048517;28;20079;-71
2023/01/23 00:58:49;;;;;;;8.43;5.38;;;19.50;62.40;;;;;;5047563;28;20036;-71
2023/01/23 01:01:16;;;;;;;9.77;5.60;;;19.50;62.10;;;;;;5060636;23;20404;-74
2023/01/23 01:03:43;;;;;;;9.32;5.80;;;19.50;62.40;;;;;;5029641;28;20028;-75
2023/01/23 01:06:10;;;;;;;8.70;5.60;;;19.50;62.10;;;;;;5014308;28;20025;-75
2023/01/23 01:08:36;;;;;;;8.52;5.47;;;19.50;62.70;;;;;;5046820;28;20021;-76
2023/01/23 01:11:02;;;;;;;8.95;5.85;;;19.50;62.10;;;;;;5031003;28;20037;-75
2023/01/23 01:13:30;;;;;;;8.45;5.32;;;19.50;62.20;;;;;;5048856;28;20037;-76
2023/01/23 01:15:56;;;;;;;10.52;5.65;;;19.50;62.30;;;;;;5047761;28;20087;-76
2023/01/23 01:18:24;;;;;;;8.40;5.45;;;19.50;62.00;;;;;;5046841;28;20032;-76
2023/01/23 01:20:54;;;;;;;9.95;5.38;;;19.50;62.20;;;;;;5011618;28;20048;-76
2023/01/23 01:23:20;;;;;;;16.27;9.88;;;19.50;62.10;;;;;;5030757;28;20024;-76
2023/01/23 01:25:46;;;;;;;30.15;20.67;;;19.50;62.10;;;;;;5048505;28;20040;-75
2023/01/23 01:28:12;;;;;;;34.83;24.65;;;19.50;62.10;;;;;;5047465;28;20028;-82
2023/01/23 01:30:39;;;;;;;49.75;33.35;;;19.50;62.30;;;;;;5048217;28;20021;-83
2023/01/23 01:33:06;;;;;;;49.30;27.58;;;19.30;57.70;;;;;;5047473;28;20033;-76
2023/01/23 01:35:32;;;;;;;73.38;32.38;;;19.00;51.80;;;;;;5048388;28;20136;-76
2023/01/23 01:37:58;;;;;;;50.28;34.78;;;19.00;53.00;;;;;;5049070;28;20048;-76
2023/01/23 01:40:27;;;;;;;49.03;34.45;;;19.00;54.10;;;;;;5046877;28;20033;-76
2023/01/23 01:42:59;;;;;;;51.25;29.55;;;19.10;55.30;;;;;;5048883;28;20033;-76
2023/01/23 01:46:13;;;;;;;41.67;27.45;;;19.10;56.20;;;;;;5027315;28;20071;-76
2023/01/23 01:49:02;;;;;;;41.33;24.10;;;19.20;57.10;;;;;;5032414;28;20094;-77
2023/01/23 01:51:44;;;;;;;38.83;26.85;;;19.20;57.50;;;;;;5032514;28;20404;-76
2023/01/23 01:54:29;;;;;;;43.70;26.98;;;19.20;57.70;;;;;;5016498;28;20108;-76
2023/01/23 01:56:59;;;;;;;36.58;26.20;;;19.20;58.00;;;;;;5048638;28;20025;-77
2023/01/23 01:59:28;;;;;;;36.42;26.42;;;19.30;58.20;;;;;;5049038;28;20481;-76
2023/01/23 02:02:03;;;;;;;36.25;24.25;;;19.30;58.50;;;;;;5048833;28;20029;-76
2023/01/23 02:04:35;;;;;;;36.70;23.08;;;19.30;59.00;;;;;;5049073;28;20029;-76
2023/01/23 02:07:07;;;;;;;33.08;22.90;;;19.30;58.70;;;;;;5032060;28;20035;-77
2023/01/23 02:09:34;;;;;;;36.28;23.67;;;19.30;59.30;;;;;;5032874;28;20116;-76
2023/01/23 02:12:03;;;;;;;36.05;21.52;;;19.30;59.00;;;;;;5049740;28;20025;-76
2023/01/23 02:14:29;;;;;;;34.33;22.52;;;19.30;59.00;;;;;;5052864;28;20056;-77
2023/01/23 02:16:59;;;;;;;35.50;22.70;;;19.30;59.10;;;;;;5052505;28;20468;-76
2023/01/23 02:19:50;;;;;;;30.73;21.95;;;19.30;59.20;;;;;;5052836;28;20025;-76
2023/01/23 02:22:46;;;;;;;29.98;21.85;;;19.30;59.40;;;;;;5035720;28;20033;-76
2023/01/23 02:25:15;;;;;;;30.20;21.95;;;19.30;59.40;;;;;;5053925;28;20043;-76
2023/01/23 02:27:43;;;;;;;31.20;21.52;;;19.30;59.50;;;;;;5052383;28;20060;-77
2023/01/23 02:30:09;;;;;;;32.15;21.90;;;19.30;59.50;;;;;;5052751;28;20056;-76
2023/01/23 02:32:35;;;;;;;30.05;21.02;;;19.30;59.50;;;;;;5052067;28;20029;-76
2023/01/23 02:35:10;;;;;;;31.35;20.60;;;19.20;59.70;;;;;;5036036;28;20040;-76
2023/01/23 02:37:41;;;;;;;31.05;20.90;;;19.30;59.50;;;;;;5035576;28;20516;-76
2023/01/23 02:40:08;;;;;;;29.67;20.65;;;19.30;59.70;;;;;;5052461;28;20037;-76
2023/01/23 02:42:41;;;;;;;28.17;19.92;;;19.30;59.60;;;;;;5052257;28;20033;-76
2023/01/23 02:45:08;;;;;;;29.25;20.08;;;19.30;59.70;;;;;;5052253;28;20036;-76
2023/01/23 02:47:34;;;;;;;28.80;19.63;;;19.30;59.80;;;;;;5051699;28;20114;-76
2023/01/23 02:50:00;;;;;;;28.98;21.08;;;19.30;59.80;;;;;;5052169;28;20068;-76
2023/01/23 02:52:26;;;;;;;30.08;20.80;;;19.30;59.90;;;;;;5051962;28;20105;-76
2023/01/23 02:54:51;;;;;;;26.70;19.05;;;19.30;60.20;;;;;;5052484;28;20036;-76
2023/01/23 02:57:17;;;;;;;28.15;19.77;;;19.30;59.80;;;;;;5051547;28;20040;-76
2023/01/23 03:02:30;;;;;;;27.25;19.38;;;19.30;59.70;;;;;;5052117;28;20031;-76
2023/01/23 03:04:55;;;;;;;26.92;19.35;;;19.30;59.80;;;;;;5053160;28;20028;-76
2023/01/23 03:07:21;;;;;;;27.80;19.42;;;19.30;59.90;;;;;;5051434;28;20230;-76
2023/01/23 03:09:47;;;;;;;31.58;19.42;;;19.30;60.00;;;;;;5051902;28;20120;-76
2023/01/23 03:12:14;;;;;;;27.77;18.90;;;19.30;60.10;;;;;;5051724;28;20396;-76
2023/01/23 03:14:40;;;;;;;26.10;18.08;;;19.20;60.00;;;;;;5051577;28;20101;-76
2023/01/23 03:17:06;;;;;;;26.50;19.05;;;19.20;60.20;;;;;;5051654;28;20025;-76
2023/01/23 03:19:35;;;;;;;27.55;18.08;;;19.20;60.20;;;;;;5034864;28;20482;-76
2023/01/23 03:22:01;;;;;;;26.08;17.73;;;19.20;60.20;;;;;;5051546;28;20075;-77
2023/01/23 03:24:26;;;;;;;30.50;19.60;;;19.20;60.20;;;;;;5051322;28;20033;-77
2023/01/23 03:26:52;;;;;;;25.08;17.27;;;19.30;60.40;;;;;;5051054;28;20381;-76
2023/01/23 03:32:12;;;;;;;24.10;17.52;;;19.20;60.40;;;;;;5051372;28;20059;-76
2023/01/23 03:34:40;;;;;;;26.15;18.02;;;19.30;60.20;;;;;;5051362;28;20366;-76
2023/01/23 03:37:09;;;;;;;22.90;16.75;;;19.20;60.30;;;;;;5050941;28;20029;-76
2023/01/23 03:42:21;;;;;;;24.10;17.48;;;19.20;60.50;;;;;;5051257;28;20056;-76
2023/01/23 03:44:51;;;;;;;26.63;18.85;;;19.20;60.50;;;;;;5051047;28;20511;-76
2023/01/23 03:47:19;;;;;;;25.35;17.77;;;19.20;60.30;;;;;;5051045;28;20029;-76
2023/01/23 03:49:46;;;;;;;23.63;16.75;;;19.20;60.30;;;;;;5050902;28;20614;-76
2023/01/23 03:52:12;;;;;;;22.77;16.52;;;19.30;60.80;;;;;;5050929;28;20108;-76
2023/01/23 03:54:38;;;;;;;24.20;16.98;;;19.20;60.40;;;;;;5050827;28;20530;-76
2023/01/23 03:57:06;;;;;;;24.75;17.23;;;19.20;61.00;;;;;;5050616;28;20029;-77
2023/01/23 03:59:59;;;;;;;25.02;17.45;;;19.30;60.60;;;;;;5020555;28;20428;-77
2023/01/23 04:02:28;;;;;;;22.17;16.35;;;19.30;60.30;;;;;;5051806;28;20562;-77
2023/01/23 04:04:54;;;;;;;23.10;16.67;;;19.30;60.30;;;;;;5050686;28;20032;-77
2023/01/23 04:07:20;;;;;;;20.83;15.25;;;19.30;60.30;;;;;;5050560;28;20132;-77
2023/01/23 04:09:48;;;;;;;22.25;16.48;;;19.30;60.40;;;;;;5050488;28;20460;-77
2023/01/23 04:12:14;;;;;;;21.33;15.23;;;19.30;60.20;;;;;;5034132;28;20025;-77
2023/01/23 04:14:43;;;;;;;26.17;16.20;;;19.30;60.40;;;;;;5050438;28;20401;-76
2023/01/23 04:17:12;;;;;;;27.15;16.58;;;19.30;60.30;;;;;;5050075;28;20029;-77
2023/01/23 04:19:38;;;;;;;22.73;15.93;;;19.30;60.30;;;;;;5050509;28;20075;-77
2023/01/23 04:22:04;;;;;;;22.95;16.08;;;19.30;60.30;;;;;;5050263;28;20029;-77
2023/01/23 04:24:36;;;;;;;24.40;15.80;;;19.30;60.20;;;;;;5050607;28;20033;-77
2023/01/23 04:27:03;;;;;;;23.25;15.63;;;19.30;60.40;;;;;;5049821;28;20039;-77
2023/01/23 04:29:28;;;;;;;26.85;15.68;;;19.30;60.80;;;;;;5050195;28;20021;-77
2023/01/23 04:31:54;;;;;;;24.33;15.52;;;19.30;60.40;;;;;;5051331;28;20025;-77
2023/01/23 04:34:21;;;;;;;23.60;16.08;;;19.30;60.70;;;;;;5049758;28;20123;-77
2023/01/23 04:36:48;;;;;;;23.70;15.48;;;19.30;60.30;;;;;;5049652;28;20052;-77
2023/01/23 04:39:14;;;;;;;25.10;15.25;;;19.30;60.40;;;;;;5050210;28;20493;-77
2023/01/23 04:41:43;;;;;;;20.50;14.80;;;19.30;60.50;;;;;;5049801;28;20082;-77
2023/01/23 04:44:38;;;;;;;22.52;15.45;;;19.30;60.40;;;;;;5037876;28;20037;-77
2023/01/23 04:47:27;;;;;;;20.67;14.85;;;19.30;60.20;;;;;;5012201;28;20143;-77
2023/01/23 04:49:53;;;;;;;21.48;15.00;;;19.30;60.40;;;;;;5033523;28;20120;-77
2023/01/23 04:52:18;;;;;;;33.25;14.82;;;19.30;60.30;;;;;;5033183;28;20427;-77
2023/01/23 04:54:52;;;;;;;21.23;14.23;;;19.30;60.50;;;;;;5051544;28;20041;-77
2023/01/23 04:57:18;;;;;;;19.55;14.52;;;19.30;60.30;;;;;;5049370;28;20029;-77
2023/01/23 04:59:44;;;;;;;23.05;14.48;;;19.30;60.50;;;;;;5033111;28;20033;-77
2023/01/23 05:02:10;;;;;;;21.50;14.00;;;19.30;60.50;;;;;;5049417;28;20036;-77
2023/01/23 05:04:41;;;;;;;21.60;14.63;;;19.30;60.30;;;;;;5049598;28;20509;-76
2023/01/23 05:07:10;;;;;;;21.13;14.45;;;19.30;60.50;;;;;;5047277;28;20045;-77
2023/01/23 05:09:39;;;;;;;20.17;14.00;;;19.40;60.30;;;;;;5032163;28;20481;-76
2023/01/23 05:12:06;;;;;;;21.33;13.95;;;19.30;60.20;;;;;;5032174;28;20162;-77
2023/01/23 05:14:36;;;;;;;22.98;13.48;;;19.30;60.30;;;;;;5049465;28;20036;-76
2023/01/23 05:17:02;;;;;;;21.67;14.43;;;19.30;60.50;;;;;;5031814;28;20045;-77
2023/01/23 05:19:34;;;;;;;21.02;13.63;;;19.30;60.40;;;;;;5049500;28;20100;-76
2023/01/23 05:22:02;;;;;;;19.40;13.98;;;19.30;60.50;;;;;;5049223;28;20057;-76
2023/01/23 05:24:29;;;;;;;22.42;13.80;;;19.30;61.10;;;;;;5049568;28;20041;-76
2023/01/23 05:26:56;;;;;;;22.05;14.23;;;19.30;60.40;;;;;;5048764;28;20060;-76
2023/01/23 05:29:24;;;;;;;20.73;14.15;;;19.30;60.40;;;;;;5049466;28;20068;-76
2023/01/23 05:32:01;;;;;;;20.08;13.63;;;19.30;60.40;;;;;;5048906;28;20033;-76
2023/01/23 05:34:36;;;;;;;20.45;14.30;;;19.30;60.50;;;;;;5050960;28;20029;-76
2023/01/23 05:37:04;;;;;;;20.15;13.45;;;19.30;60.60;;;;;;5048367;28;20025;-77
2023/01/23 05:39:33;;;;;;;20.48;13.55;;;19.30;60.50;;;;;;5049230;28;20438;-77
2023/01/23 05:42:00;;;;;;;21.10;13.95;;;19.30;60.40;;;;;;5049141;28;20043;-77
2023/01/23 05:44:44;;;;;;;24.02;13.30;;;19.30;60.90;;;;;;5049442;28;20465;-77
2023/01/23 05:47:20;;;;;;;21.95;13.93;;;19.30;60.70;;;;;;5052169;28;20134;-77
2023/01/23 05:49:47;;;;;;;19.85;13.32;;;19.30;60.50;;;;;;5053421;28;20036;-77
2023/01/23 05:52:13;;;;;;;19.60;13.48;;;19.30;60.60;;;;;;5053165;28;20028;-77
2023/01/23 05:54:38;;;;;;;20.60;12.80;;;19.30;60.70;;;;;;5053167;28;20036;-78
2023/01/23 05:57:05;;;;;;;18.67;12.63;;;19.30;60.50;;;;;;5052537;28;20059;-78
2023/01/23 05:59:36;;;;;;;19.75;12.60;;;19.30;60.50;;;;;;5053040;28;20033;-77
2023/01/23 06:02:20;;;;;;;18.83;13.05;;;19.30;60.20;;;;;;5054133;28;20025;-77
2023/01/23 06:05:18;;;;;;;18.33;12.52;;;19.30;60.40;;;;;;5053159;28;20037;-77
2023/01/23 06:07:59;;;;;;;18.30;12.90;;;19.30;60.30;;;;;;5053979;28;20083;-78
2023/01/23 06:10:25;;;;;;;20.17;12.98;;;19.30;60.40;;;;;;5052839;28;20029;-77
2023/01/23 06:12:51;;;;;;;18.30;12.45;;;19.40;60.60;;;;;;5052689;28;20029;-77
2023/01/23 06:15:18;;;;;;;21.17;13.00;;;19.30;60.30;;;;;;5053878;28;20028;-78
2023/01/23 06:17:44;;;;;;;18.77;12.50;;;19.30;60.70;;;;;;5052777;28;20515;-77
2023/01/23 06:20:11;;;;;;;19.90;13.18;;;19.30;60.50;;;;;;5036134;28;20090;-78
2023/01/23 06:22:39;;;;;;;20.58;12.60;;;19.30;60.60;;;;;;5052658;28;20033;-78
2023/01/23 06:25:10;;;;;;;21.00;12.93;;;19.30;60.60;;;;;;5052566;28;20079;-78
2023/01/23 06:27:36;;;;;;;19.13;12.57;;;19.30;60.70;;;;;;5052332;28;20029;-78
2023/01/23 06:30:05;;;;;;;18.52;12.57;;;19.30;60.70;;;;;;5052463;28;20539;-78
2023/01/23 06:32:35;;;;;;;17.77;11.27;;;19.30;60.50;;;;;;5052460;28;20397;-78
2023/01/23 06:35:03;;;;;;;20.17;12.25;;;19.30;60.60;;;;;;5052425;28;20037;-78
2023/01/23 06:37:33;;;;;;;18.52;11.98;;;19.30;60.50;;;;;;5052358;28;20071;-78
2023/01/23 06:39:59;;;;;;;18.52;11.77;;;19.30;60.30;;;;;;5036152;28;20091;-78
2023/01/23 06:42:25;;;;;;;18.88;12.65;;;19.30;60.50;;;;;;5052358;28;20052;-78
2023/01/23 06:44:51;;;;;;;20.33;12.55;;;19.30;60.80;;;;;;5035544;28;20559;-77
2023/01/23 06:47:19;;;;;;;18.60;12.10;;;19.30;60.30;;;;;;5051756;28;20025;-78
2023/01/23 06:49:53;;;;;;;19.73;12.32;;;19.30;60.70;;;;;;5052278;28;20025;-78
2023/01/23 06:52:19;;;;;;;18.98;12.15;;;19.30;60.40;;;;;;5036108;28;20037;-77
2023/01/23 06:54:46;;;;;;;18.90;12.15;;;19.30;60.20;;;;;;5035967;28;20491;-78
2023/01/23 06:57:12;;;;;;;18.50;12.10;;;19.30;60.50;;;;;;5035049;28;20404;-78
2023/01/23 06:59:38;;;;;;;19.33;11.07;;;19.30;60.30;;;;;;5067159;22;20013;-70
2023/01/23 07:02:10;;;;;;;18.52;11.63;;;19.40;60.40;;;;;;5037775;28;20020;-71
2023/01/23 07:04:44;;;;;;;19.02;12.32;;;19.30;60.10;;;;;;5055164;28;20112;-71
2023/01/23 07:07:10;;;;;;;18.85;12.07;;;19.40;60.30;;;;;;5071414;28;20028;-71
2023/01/23 07:09:38;;;;;;;19.67;11.85;;;19.40;59.90;;;;;;5038761;28;20032;-71
2023/01/23 07:12:19;;;;;;;17.58;12.05;;;19.40;60.10;;;;;;5040543;28;20052;-71
2023/01/23 07:14:45;;;;;;;19.80;11.32;;;19.40;60.10;;;;;;5055170;28;20033;-71
2023/01/23 07:17:15;;;;;;;;;;;19.40;60.10;;;;;;5054912;28;20060;-71
2023/01/23 07:19:41;;;;;;;17.05;11.30;;;19.40;60.20;;;;;;5038450;28;20269;-71
2023/01/23 07:22:10;;;;;;;18.70;11.63;;;19.40;60.20;;;;;;5054668;28;20025;-71
2023/01/23 07:24:37;;;;;;;16.27;10.75;;;19.40;60.10;;;;;;5038278;28;20043;-72
2023/01/23 07:27:03;;;;;;;17.35;11.05;;;19.40;60.30;;;;;;5054248;28;20032;-71
2023/01/23 07:29:29;;;;;;;22.27;11.95;;;19.40;60.20;;;;;;5072870;28;20021;-72
2023/01/23 07:31:56;;;;;;;20.50;11.13;;;19.30;60.30;;;;;;5072263;28;20071;-71
2023/01/23 07:34:22;;;;;;;18.50;10.93;;;19.30;60.40;;;;;;5072621;28;20069;-71
2023/01/23 07:36:48;;;;;;;16.83;11.18;;;19.30;60.30;;;;;;5053935;28;20058;-71
2023/01/23 07:39:15;;;;;;;17.35;10.85;;;19.30;60.40;;;;;;5072510;28;20089;-71
2023/01/23 07:41:40;;;;;;;17.13;10.88;;;19.30;60.30;;;;;;5054713;28;20087;-71
2023/01/23 07:44:07;;;;;;;18.08;10.65;;;19.30;60.60;;;;;;5054567;28;20033;-71
2023/01/23 07:46:33;;;;;;;17.73;10.50;;;19.40;60.70;;;;;;5054021;28;20025;-71
2023/01/23 07:48:59;;;;;;;17.98;10.65;;;19.40;60.30;;;;;;5054471;28;20028;-71
2023/01/23 07:51:24;;;;;;;15.88;10.35;;;19.30;60.40;;;;;;5071950;28;20119;-71
2023/01/23 07:53:51;;;;;;;16.52;10.48;;;19.30;60.20;;;;;;5072241;28;20085;-71
2023/01/23 07:56:17;;;;;;;17.55;10.95;;;19.30;60.20;;;;;;5054022;28;20035;-71
2023/01/23 07:58:43;;;;;;;17.45;11.25;;;19.30;60.30;;;;;;5072025;28;20028;-71
2023/01/23 08:01:11;;;;;;;15.73;10.38;;;19.30;60.40;;;;;;5053957;28;20403;-71
2023/01/23 08:03:36;;;;;;;15.95;10.60;;;19.30;60.30;;;;;;5071911;28;20071;-71
2023/01/23 08:06:02;;;;;;;17.25;10.73;;;19.40;60.30;;;;;;5071683;28;20048;-71
2023/01/23 08:08:29;;;;;;;18.98;10.85;;;19.40;60.30;;;;;;5071432;28;20101;-71
2023/01/23 08:10:55;;;;;;;15.80;10.35;;;19.40;60.40;;;;;;5071026;28;20028;-71
2023/01/23 08:13:21;;;;;;;15.68;10.98;;;19.40;60.10;;;;;;5053751;28;20070;-72
2023/01/23 08:15:46;;;;;;;17.73;10.48;;;19.40;60.20;;;;;;5071786;28;20027;-70
2023/01/23 08:18:12;;;;;;;17.08;11.05;;;19.40;60.30;;;;;;5053671;28;20472;-71
2023/01/23 08:20:38;;;;;;;16.92;10.63;;;19.40;60.30;;;;;;5053769;28;20032;-71
2023/01/23 08:23:04;;;;;;;16.20;10.35;;;19.40;60.50;;;;;;5053559;28;20036;-71
2023/01/23 08:25:30;;;;;;;20.25;10.82;;;19.40;60.60;;;;;;5071322;28;20027;-71
2023/01/23 08:27:56;;;;;;;16.33;10.30;;;19.40;60.70;;;;;;5071388;28;20162;-71
2023/01/23 08:30:22;;;;;;;15.80;10.65;;;19.40;60.40;;;;;;5071823;28;20023;-70
2023/01/23 08:32:48;;;;;;;18.88;10.65;;;19.40;60.70;;;;;;5071171;28;20020;-70
2023/01/23 08:35:14;;;;;;;16.17;10.23;;;19.40;60.90;;;;;;5071295;28;20596;-70
2023/01/23 08:37:41;;;;;;;21.73;10.63;;;19.30;60.40;;;;;;5053505;28;20539;-71
2023/01/23 08:40:09;;;;;;;14.80;10.00;;;19.30;60.40;;;;;;5053364;28;20029;-71
2023/01/23 08:42:35;;;;;;;16.50;10.27;;;19.40;60.40;;;;;;5071535;28;20024;-71
2023/01/23 08:45:00;;;;;;;16.30;9.90;;;19.40;60.50;;;;;;5071284;28;20028;-70
2023/01/23 08:47:26;;;;;;;13.68;9.55;;;19.40;60.70;;;;;;5071287;28;20020;-71
2023/01/23 08:49:52;;;;;;;15.75;9.77;;;19.40;60.50;;;;;;5071062;28;20017;-71
2023/01/23 08:52:18;;;;;;;17.30;10.32;;;19.40;60.40;;;;;;5053151;28;20074;-71
2023/01/23 08:54:44;;;;;;;16.50;10.25;;;19.40;60.40;;;;;;5070824;28;20503;-71
2023/01/23 08:57:09;;;;;;;15.05;9.57;;;19.40;60.40;;;;;;5070909;28;20377;-71
2023/01/23 08:59:35;;;;;;;15.82;10.02;;;19.40;60.70;;;;;;5053034;28;20457;-71
2023/01/23 09:02:01;;;;;;;14.82;9.63;;;19.40;60.50;;;;;;5053029;28;20109;-71
2023/01/23 09:04:27;;;;;;;17.60;10.35;;;19.30;60.60;;;;;;5070783;28;20138;-71
2023/01/23 09:06:53;;;;;;;19.27;10.05;;;19.40;60.60;;;;;;5070668;28;20025;-71
2023/01/23 09:09:18;;;;;;;16.52;9.82;;;19.40;60.70;;;;;;5052869;28;20063;-71
2023/01/23 09:11:45;;;;;;;15.55;9.85;;;19.40;60.60;;;;;;5071003;28;20028;-71
2023/01/23 09:14:11;;;;;;;17.67;10.45;;;19.40;60.30;;;;;;5070883;28;20090;-71
2023/01/23 09:16:38;;;;;;;15.40;9.60;;;19.40;60.40;;;;;;5070366;28;20040;-71
2023/01/23 09:19:03;;;;;;;14.77;9.93;;;19.40;60.30;;;;;;5070618;28;20031;-71
2023/01/23 09:21:29;;;;;;;18.48;10.30;;;19.40;60.30;;;;;;5070453;28;20032;-71
2023/01/23 09:23:55;;;;;;;16.95;9.73;;;19.40;61.00;;;;;;5070898;28;20127;-72
2023/01/23 09:26:21;;;;;;;15.15;9.93;;;19.40;60.50;;;;;;5070285;28;20020;-71
2023/01/23 09:28:47;;;;;;;15.20;9.70;;;19.40;60.20;;;;;;5070620;28;20021;-71
2023/01/23 09:31:13;;;;;;;19.20;9.88;;;19.40;60.80;;;;;;5052852;28;20093;-71
2023/01/23 09:33:40;;;;;;;14.68;9.80;;;19.40;60.60;;;;;;5052740;28;20077;-72
2023/01/23 09:36:06;;;;;;;16.45;9.40;;;19.40;61.00;;;;;;5070285;28;20025;-71
2023/01/23 09:38:32;;;;;;;16.42;10.13;;;19.40;60.10;;;;;;5070817;28;20056;-72
2023/01/23 09:41:05;;;;;;;15.55;9.68;;;19.40;60.20;;;;;;5070880;28;20456;-71
2023/01/23 09:43:31;;;;;;;14.57;9.27;;;19.40;60.40;;;;;;5070399;28;20032;-72
2023/01/23 09:46:09;;;;;;;14.20;9.48;;;19.40;60.30;;;;;;5070089;28;20024;-72
2023/01/23 09:49:07;;;;;;;16.00;9.35;;;19.40;60.30;;;;;;5070515;28;20082;-71
2023/01/23 09:51:58;;;;;;;22.95;9.57;;;19.50;60.20;;;;;;5070167;28;20465;-71
2023/01/23 09:54:33;;;;;;;19.25;9.15;;;19.40;60.50;;;;;;5052706;28;20033;-71
2023/01/23 09:57:03;;;;;;;17.67;9.38;;;19.50;60.50;;;;;;5051991;28;20489;-71
2023/01/23 09:59:37;;;;;;;31.05;9.98;;;19.50;61.00;;;;;;5070256;28;20036;-71
2023/01/23 10:02:18;;;;;;;27.52;9.80;;;19.50;61.00;;;;;;5070159;28;20043;-72
2023/01/23 10:04:51;;;;;;;24.30;10.20;;;19.50;62.20;;;;;;5070427;28;20030;-71
2023/01/23 10:07:30;;;;;;;23.00;10.70;;;19.60;61.60;;;;;;5069650;28;20029;-71
2023/01/23 10:10:14;;;;;;;18.53;10.43;;;19.60;62.70;;;;;;5070375;28;20032;-72
2023/01/23 10:12:48;;;;;;;22.67;11.52;;;19.60;62.50;;;;;;5066496;28;20044;-73
2023/01/23 10:15:41;;;;;;;21.52;14.55;;;19.60;61.80;;;;;;5067861;28;20025;-73
2023/01/23 10:18:12;;;;;;;40.83;29.73;;;19.30;50.50;;;;;;5068072;28;20040;-72
2023/01/23 10:21:16;;;;;;;54.33;35.75;;;18.80;45.70;;;;;;5068077;28;20029;-70
2023/01/23 10:23:53;;;;;;;43.35;32.70;;;18.50;44.10;;;;;;5022981;28;20070;-71
2023/01/23 10:26:22;;;;;;;46.53;30.40;;;18.50;47.10;;;;;;5049470;28;20037;-71
2023/01/23 10:28:50;;;;;;;40.00;29.00;;;18.60;48.30;;;;;;5047935;28;20064;-71
2023/01/23 10:31:29;;;;;;;58.25;28.30;;;18.70;49.40;;;;;;5048030;28;20037;-71
2023/01/23 10:34:14;;;;;;;39.30;28.48;;;18.90;50.50;;;;;;5050071;28;20112;-71
2023/01/23 10:37:15;;;;;;;61.42;27.30;;;19.00;50.40;;;;;;5053575;28;20036;-72
2023/01/23 10:39:58;;;;;;;36.15;24.98;;;19.10;51.90;;;;;;5053557;28;20035;-72
2023/01/23 10:42:26;;;;;;;45.70;23.17;;;19.20;53.00;;;;;;5071216;28;20033;-72
2023/01/23 10:44:52;;;;;;;45.05;22.10;;;19.20;53.40;;;;;;5071241;28;20029;-72
2023/01/23 10:47:34;;;;;;;32.55;21.77;;;19.30;53.50;;;;;;5070827;28;20028;-71
2023/01/23 10:50:01;;;;;;;46.15;23.00;;;19.30;54.00;;;;;;5053229;28;20032;-72
2023/01/23 10:52:37;;;;;;;66.18;21.10;;;19.40;55.10;;;;;;5071261;28;20044;-71
2023/01/23 10:55:05;;;;;;;51.80;22.65;;;19.50;59.00;;;;;;5052970;28;20797;-71
2023/01/23 10:57:47;;;;;;;40.40;21.67;;;19.40;57.60;;;;;;5070936;28;20051;-72
2023/01/23 11:00:31;;;;;;;64.72;22.40;;;19.50;57.50;;;;;;5070900;28;20036;-72
2023/01/23 11:03:23;;;;;;;58.15;21.45;;;19.60;58.70;;;;;;5053139;28;20033;-71
2023/01/23 11:06:07;;;;;;;42.00;21.52;;;19.60;65.60;;;;;;5070561;28;20051;-72
2023/01/23 11:08:36;;;;;;;44.58;22.52;;;19.60;64.70;;;;;;5070845;28;20040;-72
2023/01/23 11:11:14;;;;;;;40.08;22.02;;;19.60;68.10;;;;;;5070644;28;20484;-72
2023/01/23 11:13:42;;;;;;;58.15;23.95;;;19.60;70.30;;;;;;5070436;28;20036;-71
2023/01/23 11:16:22;;;;;;;44.92;22.55;;;19.70;70.20;;;;;;5070422;28;20442;-72
2023/01/23 11:19:08;;;;;;;43.65;23.23;;;19.60;64.00;;;;;;5070475;28;20111;-72
2023/01/23 11:21:49;;;;;;;34.33;19.90;;;19.50;62.40;;;;;;5056188;28;20118;-71
2023/01/23 11:24:33;;;;;;;29.45;19.17;;;19.40;58.80;;;;;;5052804;28;20571;-72
2023/01/23 11:27:04;;;;;;;27.63;18.20;;;19.30;55.90;;;;;;5051477;28;20048;-71
2023/01/23 11:29:52;;;;;;;43.17;18.58;;;19.20;53.40;;;;;;5046417;28;20029;-72
2023/01/23 11:32:22;;;;;;;25.40;16.70;;;19.10;52.20;;;;;;5035895;28;20078;-71
2023/01/23 11:34:56;;;;;;;28.70;16.33;;;19.00;51.10;;;;;;5049966;28;20277;-71
2023/01/23 11:37:31;;;;;;;29.00;16.23;;;19.00;51.50;;;;;;5015532;28;20033;-72
2023/01/23 11:40:09;;;;;;;25.70;15.70;;;18.90;50.40;;;;;;5065565;28;20396;-71
2023/01/23 11:42:38;;;;;;;21.10;14.60;;;18.80;49.50;;;;;;5069497;28;20484;-72
2023/01/23 11:45:13;;;;;;;19.60;14.35;;;18.80;49.10;;;;;;5050324;28;20038;-72
2023/01/23 11:47:50;;;;;;;18.98;13.27;;;18.70;48.30;;;;;;5070227;28;20036;-72
2023/01/23 11:50:35;;;;;;;19.77;13.80;;;18.70;48.30;;;;;;5050058;28;20029;-71
2023/01/23 11:53:25;;;;;;;19.80;13.77;;;18.70;47.70;;;;;;5067873;28;20052;-72
2023/01/23 11:56:28;;;;;;;20.23;13.18;;;18.70;47.10;;;;;;5049503;28;20400;-71
2023/01/23 11:59:38;;;;;;;16.95;12.65;;;18.60;46.70;;;;;;5068065;28;20477;-72
2023/01/23 12:02:35;;;;;;;21.33;13.40;;;18.60;46.80;;;;;;4952087;28;20046;-72
2023/01/23 12:05:19;;;;;;;19.23;12.50;;;18.50;46.00;;;;;;5067569;28;20037;-71
2023/01/23 12:08:12;;;;;;;16.55;12.65;;;18.50;45.80;;;;;;5067789;28;20489;-72
2023/01/23 12:11:15;;;;;;;19.60;12.80;;;18.50;45.60;;;;;;5047182;28;20425;-72
2023/01/23 12:13:56;;;;;;;18.77;12.50;;;18.40;45.60;;;;;;5015203;28;20044;-72
2023/01/23 12:16:27;;;;;;;18.75;12.43;;;18.40;44.80;;;;;;5066846;28;20041;-72
2023/01/23 12:19:11;;;;;;;17.40;11.95;;;18.40;44.90;;;;;;5068011;28;20113;-72
2023/01/23 12:22:01;;;;;;;15.98;10.27;;;18.40;44.70;;;;;;5065571;28;20040;-72
2023/01/23 12:24:55;;;;;;;17.13;11.13;;;18.30;45.20;;;;;;5069478;28;20503;-72
2023/01/23 12:27:44;;;;;;;19.92;10.50;;;18.50;46.80;;;;;;5069308;28;20103;-71
2023/01/23 12:30:37;;;;;;;15.43;9.63;;;18.60;47.20;;;;;;5069261;28;20506;-72
2023/01/23 12:33:13;;;;;;;15.50;10.55;;;18.70;47.60;;;;;;5068962;28;20032;-71
2023/01/23 12:35:54;;;;;;;15.52;9.43;;;18.70;48.10;;;;;;5067579;28;20032;-72
2023/01/23 12:38:26;;;;;;;15.07;9.10;;;18.80;48.30;;;;;;5067149;28;20541;-72
2023/01/23 12:41:13;;;;;;;16.38;8.60;;;18.90;48.60;;;;;;5068490;28;20491;-72
2023/01/23 12:43:53;;;;;;;14.98;8.93;;;19.00;49.60;;;;;;5068712;28;20063;-72
2023/01/23 12:46:29;;;;;;;12.98;8.23;;;19.10;49.70;;;;;;5050467;28;20024;-71
2023/01/23 12:49:17;;;;;;;17.90;9.52;;;19.10;50.20;;;;;;5068274;28;20021;-72
2023/01/23 12:51:51;;;;;;;14.82;8.60;;;19.10;49.20;;;;;;5051517;28;20079;-72
2023/01/23 12:54:26;;;;;;;13.75;8.45;;;19.20;49.80;;;;;;5050746;28;20043;-71
2023/01/23 12:56:53;;;;;;;14.50;8.25;;;19.20;50.30;;;;;;5050081;28;20112;-72
2023/01/23 12:59:29;;;;;;;14.30;8.75;;;19.30;50.50;;;;;;5068252;28;20097;-72